Terminal Aerodrome Forecast
Issued by NWS

Home | Current Version | Previous Version | Text Only | Print | Product List | Glossary On
Versions: 1 2 3 4 5 6 7 8 9 10 11 12 13 14 15 16 17 18 19 20
055
FTUS43 KGRR 232340
TAFBTL
TAF
KBTL 232340Z 2400/2424 33006KT P6SM -DZ OVC004
      TEMPO 2400/2404 1 1/2SM -DZ BR OVC002
     FM240400 31004KT 1 1/2SM -DZ BR OVC002
     FM241300 30007KT 1 1/2SM -DZ BR OVC003
     FM241600 30008KT 2SM BR OVC007
     FM241700 30008KT 4SM BR OVC015=

USA.gov is the U.S. government's official web portal to all federal, state and local government web resources and services.